Time;durP1;ratioP1;P1;durP2;ratioP2;P2;SDS_P1;SDS_P2;PMS_P1;PMS_P2;Temp;Humidity;BMP_temperature;BMP_pressure;BME280_temperature;BME280_humidity;BME280_pressure;Samples;Min_cycle;Max_cycle;Signal;HPM_P1;HPM_P2
2023/06/01 00:00:17;;;;;;;7.93;4.28;;;;;;;18.87;48.59;100460.53;4965920;28;96818;-79
2023/06/01 00:02:45;;;;;;;10.02;4.50;;;;;;;18.84;48.22;100464.25;4966051;28;96913;-80
2023/06/01 00:05:10;;;;;;;7.53;4.35;;;;;;;18.38;48.13;100398.13;4953962;28;97040;-83
2023/06/01 00:07:36;;;;;;;12.43;5.03;;;;;;;18.56;48.05;100422.66;4940645;28;97945;-80
2023/06/01 00:10:02;;;;;;;9.05;4.00;;;;;;;18.69;48.34;100454.59;4953940;28;100998;-79
2023/06/01 00:12:28;;;;;;;8.38;3.95;;;;;;;18.73;48.02;100466.72;4936505;28;97168;-80
2023/06/01 00:14:54;;;;;;;12.32;4.38;;;;;;;18.72;48.11;100457.06;4936916;28;97408;-79
2023/06/01 00:17:19;;;;;;;6.22;3.95;;;;;;;18.67;48.21;100448.53;4918862;28;101501;-81
2023/06/01 00:19:45;;;;;;;13.25;5.07;;;;;;;18.68;48.26;100453.75;4954040;28;101236;-80
2023/06/01 00:22:11;;;;;;;8.52;3.95;;;;;;;18.66;48.50;100463.63;4944109;28;97078;-79
2023/06/01 00:24:37;;;;;;;12.73;4.07;;;;;;;18.63;48.41;100453.19;4952290;28;97226;-80
2023/06/01 00:27:03;;;;;;;11.10;5.05;;;;;;;18.53;48.47;100433.50;4950778;28;101027;-80
2023/06/01 00:29:29;;;;;;;9.85;3.95;;;;;;;18.52;49.17;100434.44;4951332;28;101258;-79
2023/06/01 00:31:55;;;;;;;9.70;4.07;;;;;;;18.55;48.84;100448.38;4951591;28;97617;-85
2023/06/01 00:34:21;;;;;;;9.18;4.40;;;;;;;18.36;48.98;100425.78;4948047;28;97379;-80
2023/06/01 00:36:46;;;;;;;7.53;3.58;;;;;;;18.48;49.27;100440.91;4949367;28;100996;-80
2023/06/01 00:39:12;;;;;;;14.13;4.68;;;;;;;18.45;49.25;100451.75;4963728;28;101211;-81
2023/06/01 00:41:38;;;;;;;10.05;5.05;;;;;;;18.39;49.29;100446.84;4937107;28;96911;-80
2023/06/01 00:44:03;;;;;;;21.55;4.82;;;;;;;18.39;49.29;100446.84;4933828;28;97043;-82
2023/06/01 00:46:30;;;;;;;15.88;5.28;;;;;;;18.40;49.14;100448.53;4945792;28;101433;-82
2023/06/01 00:48:56;;;;;;;10.45;4.43;;;;;;;18.36;49.23;100444.38;4934309;28;101595;-87
2023/06/01 00:51:21;;;;;;;9.20;3.90;;;;;;;18.17;49.08;100418.13;4947869;28;96896;-80
2023/06/01 00:53:47;;;;;;;8.80;4.15;;;;;;;18.18;49.04;100419.81;4970931;28;96851;-83
2023/06/01 00:56:13;;;;;;;7.28;4.00;;;;;;;18.27;48.86;100438.69;4941350;28;101452;-82
2023/06/01 00:58:39;;;;;;;8.52;3.90;;;;;;;18.13;48.87;100408.66;4954323;28;101439;-80
2023/06/01 01:01:05;;;;;;;7.15;3.85;;;;;;;18.28;48.27;100439.53;4949153;28;97969;-80
2023/06/01 01:03:34;;;;;;;7.80;3.78;;;;;;;18.24;48.63;100436.22;4937297;28;97411;-79
2023/06/01 01:06:25;;;;;;;9.63;4.03;;;;;;;18.26;48.39;100438.78;4941059;28;101480;-82
2023/06/01 01:09:19;;;;;;;6.18;3.60;;;;;;;18.22;48.59;100438.13;4955673;28;101166;-79
2023/06/01 01:11:53;;;;;;;12.10;3.42;;;;;;;18.19;48.00;100430.34;4957227;28;96924;-79
2023/06/01 01:15:00;;;;;;;5.75;3.55;;;;;;;18.19;48.13;100434.81;4933290;28;97442;-82
2023/06/01 01:17:32;;;;;;;9.50;4.07;;;;;;;18.16;48.20;100433.22;4975794;28;98266;-82
2023/06/01 01:20:14;;;;;;;6.95;3.08;;;;;;;18.15;48.27;100435.94;4953770;28;101570;-87
2023/06/01 01:23:04;;;;;;;8.25;4.03;;;;;;;17.84;48.24;100384.78;4957035;28;97591;-83
2023/06/01 01:25:35;;;;;;;9.98;3.85;;;;;;;18.06;48.16;100430.28;4957484;28;96946;-79
2023/06/01 01:28:11;;;;;;;7.80;3.22;;;;;;;18.07;48.10;100431.16;4971215;28;100616;-79
2023/06/01 01:30:37;;;;;;;8.40;3.85;;;;;;;17.87;48.27;100412.00;4971903;28;100988;-82
2023/06/01 01:33:03;;;;;;;5.95;4.00;;;;;;;17.98;48.36;100429.06;4964439;28;96779;-79
2023/06/01 01:35:30;;;;;;;13.80;4.22;;;;;;;17.95;48.42;100431.91;4951668;28;96896;-79
2023/06/01 01:37:56;;;;;;;9.45;4.63;;;;;;;17.66;48.85;100389.44;4950312;28;101208;-83
2023/06/01 01:40:23;;;;;;;11.15;4.78;;;;;;;17.82;48.99;100419.41;4941290;28;101306;-82
2023/06/01 01:42:50;;;;;;;7.50;3.70;;;;;;;17.71;49.13;100415.66;4957139;28;96966;-84
2023/06/01 01:45:16;;;;;;;6.47;4.13;;;;;;;17.81;49.30;100432.78;4951887;28;96912;-82
2023/06/01 01:47:45;;;;;;;9.50;4.60;;;;;;;17.78;49.41;100425.00;4938342;28;101487;-80
2023/06/01 01:50:12;;;;;;;10.57;4.72;;;;;;;17.58;49.50;100394.34;4961460;28;101317;-82
2023/06/01 01:52:42;;;;;;;8.70;3.92;;;;;;;17.75;49.42;100419.84;4947553;28;96945;-82
2023/06/01 01:55:08;;;;;;;13.07;4.10;;;;;;;17.58;49.27;100389.91;4946974;28;97162;-82
2023/06/01 01:57:35;;;;;;;9.35;4.10;;;;;;;17.67;49.47;100399.09;4955894;28;101627;-79
2023/06/01 02:00:03;;;;;;;6.95;3.58;;;;;;;17.53;49.33;100378.72;4954278;28;101241;-80
2023/06/01 02:02:39;;;;;;;6.90;4.10;;;;;;;17.69;49.03;100401.66;4971798;28;96993;-82
2023/06/01 02:05:05;;;;;;;8.63;4.45;;;;;;;17.60;48.87;100395.97;4952256;28;97052;-79
2023/06/01 02:07:33;;;;;;;8.60;3.85;;;;;;;17.61;49.14;100402.13;4956511;28;100922;-84
2023/06/01 02:09:59;;;;;;;10.13;3.90;;;;;;;17.40;49.49;100375.13;4940443;28;101738;-85
2023/06/01 02:12:24;;;;;;;11.73;3.88;;;;;;;17.52;49.42;100400.03;4953448;28;96714;-79
2023/06/01 02:14:51;;;;;;;6.75;3.92;;;;;;;17.48;49.29;100406.47;4947813;28;97581;-81
2023/06/01 02:17:17;;;;;;;9.32;4.13;;;;;;;17.46;49.61;100403.94;4936336;28;100799;-82
2023/06/01 02:19:43;;;;;;;9.73;3.72;;;;;;;17.29;49.73;100375.78;4940972;28;101605;-83
2023/06/01 02:22:08;;;;;;;8.00;4.07;;;;;;;17.28;49.72;100378.50;4947008;28;97229;-79
2023/06/01 02:24:34;;;;;;;10.82;4.20;;;;;;;17.27;49.67;100379.47;4949618;28;97223;-82
2023/06/01 02:27:00;;;;;;;7.03;4.35;;;;;;;17.34;49.71;100388.75;4960672;28;101768;-87
2023/06/01 02:29:26;;;;;;;7.43;4.03;;;;;;;17.33;49.54;100395.84;4938873;28;101918;-79
2023/06/01 02:31:52;;;;;;;10.27;4.20;;;;;;;17.36;49.36;100403.63;4947490;28;96860;-80
2023/06/01 02:34:18;;;;;;;10.32;4.30;;;;;;;17.26;49.57;100378.59;4950402;28;96882;-81
2023/06/01 02:36:46;;;;;;;9.82;4.18;;;;;;;17.38;49.83;100398.22;4941851;28;101483;-79
2023/06/01 02:39:12;;;;;;;8.88;3.78;;;;;;;17.33;49.47;100393.19;4952133;28;101781;-81
2023/06/01 02:41:38;;;;;;;7.00;3.22;;;;;;;17.34;49.66;100394.06;4972870;28;97014;-79
2023/06/01 02:44:03;;;;;;;10.45;4.47;;;;;;;17.29;49.98;100389.03;4952303;28;96823;-80
2023/06/01 02:46:29;;;;;;;13.43;4.45;;;;;;;17.31;50.23;100397.75;4942847;28;101402;-82
2023/06/01 02:48:55;;;;;;;15.63;4.63;;;;;;;17.15;50.10;100373.09;4935797;28;101144;-82
2023/06/01 02:51:21;;;;;;;13.52;4.10;;;;;;;17.26;50.05;100388.38;4935604;28;97004;-79
2023/06/01 02:53:50;;;;;;;13.45;4.03;;;;;;;17.22;50.07;100379.75;4956329;28;96958;-79
2023/06/01 02:56:16;;;;;;;11.98;4.13;;;;;;;17.26;50.01;100389.22;4954787;28;101401;-80
2023/06/01 02:59:08;;;;;;;14.70;4.15;;;;;;;17.23;50.01;100396.53;4984145;28;99255;-79
2023/06/01 03:01:57;;;;;;;13.23;4.43;;;;;;;17.20;50.34;100382.50;4939833;28;97173;-80
2023/06/01 03:04:22;;;;;;;8.20;4.90;;;;;;;17.19;50.21;100382.56;4938534;28;97271;-79
2023/06/01 03:06:49;;;;;;;17.25;4.97;;;;;;;17.22;50.26;100384.19;4946315;28;101434;-83
2023/06/01 03:09:34;;;;;;;14.20;4.38;;;;;;;17.16;50.42;100375.69;4938739;28;100460;-79
2023/06/01 03:12:26;;;;;;;13.98;4.00;;;;;;;17.12;50.36;100367.97;4947867;28;97038;-79
2023/06/01 03:14:51;;;;;;;13.32;4.03;;;;;;;17.18;50.32;100372.91;4945969;28;97011;-84
2023/06/01 03:17:17;;;;;;;12.30;4.10;;;;;;;17.15;50.61;100370.44;4952905;28;101537;-82
2023/06/01 03:19:42;;;;;;;15.32;4.95;;;;;;;17.17;50.35;100377.38;4939156;28;101443;-80
2023/06/01 03:22:17;;;;;;;11.18;4.47;;;;;;;17.22;50.25;100382.41;4953355;28;97061;-80
2023/06/01 03:24:44;;;;;;;19.20;4.65;;;;;;;17.23;50.37;100385.91;4948938;28;97077;-83
2023/06/01 03:27:13;;;;;;;13.63;5.05;;;;;;;17.17;50.29;100371.22;4944330;28;101379;-79
2023/06/01 03:29:38;;;;;;;16.77;4.55;;;;;;;17.17;50.30;100379.19;4952253;28;97479;-79
2023/06/01 03:32:05;;;;;;;14.50;4.47;;;;;;;17.14;50.47;100374.91;4920062;28;97223;-86
2023/06/01 03:34:32;;;;;;;11.27;4.32;;;;;;;17.26;50.21;100389.22;4953334;28;97062;-82
2023/06/01 03:36:58;;;;;;;13.30;3.88;;;;;;;17.15;49.63;100370.44;4938891;28;101014;-79
2023/06/01 03:39:24;;;;;;;13.48;4.28;;;;;;;17.26;49.87;100391.88;4964845;28;101200;-80
2023/06/01 03:41:49;;;;;;;10.13;4.80;;;;;;;17.27;50.08;100390.91;4932052;28;97048;-82
2023/06/01 03:44:15;;;;;;;14.70;4.50;;;;;;;17.29;50.18;100388.19;4958264;28;96917;-82
2023/06/01 03:46:41;;;;;;;15.43;4.47;;;;;;;17.27;50.25;100372.34;4947403;28;101173;-79
2023/06/01 03:49:07;;;;;;;10.80;4.82;;;;;;;17.36;49.98;100373.59;4934874;28;101618;-81
2023/06/01 03:51:33;;;;;;;14.93;4.03;;;;;;;17.43;49.80;100383.75;4937299;28;97262;-79
2023/06/01 03:53:59;;;;;;;10.77;4.53;;;;;;;17.50;49.83;100393.97;4954998;28;97486;-79
2023/06/01 03:56:24;;;;;;;16.17;4.47;;;;;;;17.57;49.46;100377.59;4935470;28;101510;-79
2023/06/01 03:58:52;;;;;;;16.02;5.15;;;;;;;17.75;49.38;100386.19;4938896;28;100883;-79
2023/06/01 04:01:19;;;;;;;13.73;4.35;;;;;;;17.86;49.23;100381.09;4935277;28;97104;-79
2023/06/01 04:03:48;;;;;;;13.88;4.57;;;;;;;17.94;48.88;100358.50;4931727;28;96947;-81
2023/06/01 04:06:17;;;;;;;13.48;4.55;;;;;;;18.04;49.05;100365.78;4948357;28;101141;-79
2023/06/01 04:08:55;;;;;;;16.13;4.72;;;;;;;18.16;48.40;100368.59;4971638;28;101510;-79
2023/06/01 04:11:22;;;;;;;14.38;4.07;;;;;;;18.25;48.43;100366.19;4939450;28;97136;-81
2023/06/01 04:13:48;;;;;;;17.17;4.65;;;;;;;18.28;48.03;100366.00;4935232;28;96875;-79
2023/06/01 04:16:15;;;;;;;14.23;3.92;;;;;;;18.43;47.61;100371.25;4943514;28;100476;-79
2023/06/01 04:18:40;;;;;;;10.50;4.28;;;;;;;18.48;47.43;100371.81;4929385;28;101262;-79
2023/06/01 04:21:11;;;;;;;10.77;4.63;;;;;;;18.62;47.32;100374.41;4941297;28;96825;-78
2023/06/01 04:23:37;;;;;;;26.05;4.68;;;;;;;18.73;46.50;100374.56;4929219;28;97007;-79
2023/06/01 04:26:04;;;;;;;15.02;4.15;;;;;;;18.78;46.52;100360.94;4931280;28;101662;-79
2023/06/01 04:28:32;;;;;;;12.45;4.07;;;;;;;19.00;46.23;100371.84;4952902;28;100948;-79
2023/06/01 04:30:58;;;;;;;6.47;3.42;;;;;;;18.97;46.03;100336.63;4969663;28;97138;-81
2023/06/01 04:33:24;;;;;;;7.40;3.70;;;;;;;19.21;45.89;100356.22;4963610;28;97121;-78
2023/06/01 04:35:54;;;;;;;10.38;4.22;;;;;;;19.32;45.67;100355.47;4952865;28;101429;-79
2023/06/01 04:38:24;;;;;;;9.63;4.18;;;;;;;19.43;44.91;100350.25;4951697;28;102243;-79
2023/06/01 04:40:53;;;;;;;38.38;4.90;;;;;;;19.39;45.00;100326.59;4944167;28;97606;-79
2023/06/01 04:43:19;;;;;;;26.33;4.35;;;;;;;19.63;44.88;100346.19;4951224;28;97071;-81
2023/06/01 04:45:46;;;;;;;16.80;3.92;;;;;;;19.65;44.67;100330.94;4970610;28;97838;-79
2023/06/01 04:48:12;;;;;;;9.93;3.53;;;;;;;19.87;44.41;100348.91;4937545;28;100888;-79
2023/06/01 04:50:57;;;;;;;10.02;4.57;;;;;;;19.85;43.93;100310.88;4942740;28;96834;-79
2023/06/01 04:53:23;;;;;;;10.77;3.70;;;;;;;20.16;43.57;100334.41;4955621;28;97178;-82
2023/06/01 04:55:50;;;;;;;10.35;3.95;;;;;;;20.32;43.78;100340.31;4938145;28;101445;-79
2023/06/01 04:58:15;;;;;;;10.13;3.90;;;;;;;20.26;43.31;100333.63;4944899;28;100899;-79
2023/06/01 05:00:41;;;;;;;11.13;4.15;;;;;;;20.28;43.33;100345.03;4928842;28;97087;-78
2023/06/01 05:03:07;;;;;;;13.82;4.20;;;;;;;20.22;43.23;100334.81;4969527;28;97349;-79
2023/06/01 05:05:33;;;;;;;7.72;3.60;;;;;;;20.24;43.52;100330.22;4937111;28;101668;-79
2023/06/01 05:07:58;;;;;;;26.33;6.43;;;;;;;20.29;43.55;100341.38;4932448;28;101018;-79
2023/06/01 05:10:24;;;;;;;9.38;3.67;;;;;;;20.31;43.54;100341.28;4937066;28;96975;-79
2023/06/01 05:12:50;;;;;;;12.98;4.20;;;;;;;20.45;43.29;100349.09;4943834;28;97221;-79
2023/06/01 05:15:17;;;;;;;8.50;3.67;;;;;;;20.66;42.83;100332.47;4945350;28;101575;-79
2023/06/01 05:17:43;;;;;;;15.85;4.35;;;;;;;20.78;42.80;100320.88;4937372;28;101395;-79
2023/06/01 05:20:12;;;;;;;13.20;3.80;;;;;;;20.95;42.33;100320.44;4940641;28;97817;-80
2023/06/01 05:22:40;;;;;;;14.32;4.25;;;;;;;21.18;42.43;100325.81;4946636;28;97127;-79
2023/06/01 05:25:07;;;;;;;11.90;4.30;;;;;;;21.36;41.80;100335.06;4944058;28;101952;-80
2023/06/01 05:27:32;;;;;;;11.32;4.13;;;;;;;21.48;41.67;100331.41;4940413;28;100931;-80
2023/06/01 05:29:58;;;;;;;11.07;3.67;;;;;;;21.55;41.46;100320.22;4939234;28;97178;-82
2023/06/01 05:32:23;;;;;;;6.85;3.55;;;;;;;21.80;41.16;100319.97;4937924;28;97419;-79
2023/06/01 05:34:49;;;;;;;11.38;4.40;;;;;;;22.15;40.79;100327.75;4958651;28;100247;-82
2023/06/01 05:37:16;;;;;;;8.57;4.10;;;;;;;22.33;40.22;100279.97;4933456;28;100416;-78
2023/06/01 05:39:42;;;;;;;12.32;3.95;;;;;;;23.14;39.26;100320.38;4954661;28;96915;-80
2023/06/01 05:42:08;;;;;;;9.70;3.78;;;;;;;23.99;38.03;100329.03;4945965;28;96896;-78
2023/06/01 05:44:38;;;;;;;7.77;3.47;;;;;;;24.95;36.46;100300.50;4951246;28;99898;-81
2023/06/01 05:47:03;;;;;;;7.10;3.33;;;;;;;26.45;34.70;100303.81;4961307;28;98955;-80
2023/06/01 05:49:32;;;;;;;15.18;4.88;;;;;;;28.03;32.17;100279.28;4956087;28;97376;-80
2023/06/01 05:51:58;;;;;;;8.23;3.58;;;;;;;30.06;29.77;100298.75;4951393;28;96926;-79
2023/06/01 05:54:26;;;;;;;10.68;3.40;;;;;;;32.55;26.55;100287.47;4934643;28;101725;-80
2023/06/01 05:56:52;;;;;;;19.67;4.75;;;;;;;35.68;23.42;100291.75;4947142;28;101127;-80
2023/06/01 05:59:18;;;;;;;18.20;4.50;;;;;;;39.16;20.03;100275.44;4928167;28;96845;-80
2023/06/01 06:01:47;;;;;;;17.00;4.20;;;;;;;41.79;17.71;100263.78;4944991;28;97495;-81
2023/06/01 06:04:13;;;;;;;7.57;3.78;;;;;;;43.89;16.02;100265.13;4944602;28;97410;-82
2023/06/01 06:06:39;;;;;;;11.55;4.35;;;;;;;45.57;15.48;100267.63;4934038;28;101135;-80
2023/06/01 06:09:04;;;;;;;8.15;3.05;;;;;;;46.68;13.93;100255.94;4932950;28;97040;-80
2023/06/01 06:11:30;;;;;;;7.72;3.22;;;;;;;47.81;13.52;100263.69;4928289;28;97315;-82
2023/06/01 06:13:56;;;;;;;6.80;2.78;;;;;;;48.91;12.82;100262.38;4941499;28;98015;-83
2023/06/01 06:16:21;;;;;;;3.45;2.65;;;;;;;49.82;12.26;100259.50;4962082;28;101234;-84
2023/06/01 06:18:47;;;;;;;6.28;3.03;;;;;;;50.68;11.79;100247.28;4937582;28;97197;-80
2023/06/01 06:21:13;;;;;;;6.88;2.92;;;;;;;51.59;11.15;100256.88;4951190;28;97295;-86
2023/06/01 06:23:39;;;;;;;5.72;2.90;;;;;;;52.19;10.92;100251.56;4932749;28;101392;-81
2023/06/01 06:26:06;;;;;;;8.60;3.50;;;;;;;52.77;10.35;100252.06;4947745;28;101548;-81
2023/06/01 06:28:31;;;;;;;5.45;2.47;;;;;;;53.54;10.22;100247.94;4953355;28;96990;-81
2023/06/01 06:30:58;;;;;;;5.10;2.63;;;;;;;54.23;9.78;100257.72;4944272;28;97321;-82
2023/06/01 06:33:23;;;;;;;6.65;2.95;;;;;;;54.80;9.60;100246.81;4951931;28;97621;-81
2023/06/01 06:35:49;;;;;;;8.45;3.75;;;;;;;55.30;9.36;100243.59;4944805;28;98043;-82
2023/06/01 06:38:16;;;;;;;3.45;3.00;;;;;;;55.60;9.11;100224.44;4951790;28;97232;-80
2023/06/01 06:40:42;;;;;;;4.22;2.80;;;;;;;55.16;9.74;100227.09;4943334;28;96861;-79
2023/06/01 06:43:08;;;;;;;4.55;3.38;;;;;;;55.11;8.96;100244.22;4941830;28;101210;-78
2023/06/01 06:45:34;;;;;;;10.25;3.47;;;;;;;55.73;9.49;100232.81;4942859;28;98109;-80
2023/06/01 06:47:59;;;;;;;3.90;2.95;;;;;;;54.89;9.18;100237.06;4957813;28;97962;-82
2023/06/01 06:50:25;;;;;;;3.58;2.92;;;;;;;54.39;9.89;100235.41;4960095;28;97015;-78
2023/06/01 06:52:50;;;;;;;3.42;3.03;;;;;;;56.68;8.89;100233.75;4970985;28;97410;-80
2023/06/01 06:55:16;;;;;;;3.83;3.35;;;;;;;58.52;7.88;100219.38;4965422;28;97682;-79
2023/06/01 06:57:41;;;;;;;5.03;3.00;;;;;;;58.50;7.89;100233.06;4942247;28;96934;-80
2023/06/01 07:00:08;;;;;;;3.35;2.92;;;;;;;57.94;8.38;100231.66;4958406;28;98052;-81
2023/06/01 07:02:34;;;;;;;3.38;3.08;;;;;;;56.31;8.79;100224.75;4950715;28;101881;-81
2023/06/01 07:05:00;;;;;;;14.18;3.47;;;;;;;54.67;9.52;100223.53;4934505;28;100879;-82
2023/06/01 07:07:26;;;;;;;6.28;3.42;;;;;;;53.95;9.65;100221.00;4926055;28;100143;-81
2023/06/01 07:09:53;;;;;;;6.45;3.03;;;;;;;55.28;9.27;100217.03;4957640;28;97306;-83
2023/06/01 07:12:18;;;;;;;2.83;2.63;;;;;;;55.58;9.29;100212.69;4949565;28;101397;-81
2023/06/01 07:14:44;;;;;;;3.45;2.90;;;;;;;56.61;8.83;100213.84;4965050;28;98156;-82
2023/06/01 07:17:09;;;;;;;4.47;2.97;;;;;;;58.84;7.60;100217.03;4929368;28;97217;-81
2023/06/01 07:19:35;;;;;;;5.20;3.33;;;;;;;59.80;7.35;100208.97;4958111;28;97406;-82
2023/06/01 07:22:00;;;;;;;3.33;2.97;;;;;;;60.17;7.48;100205.34;4970277;28;97740;-81
2023/06/01 07:24:27;;;;;;;9.10;3.95;;;;;;;61.48;7.20;100215.06;4951088;28;101774;-82
2023/06/01 07:26:53;;;;;;;4.75;3.63;;;;;;;61.56;6.52;100204.50;4946324;28;97041;-81
2023/06/01 07:29:20;;;;;;;9.25;3.92;;;;;;;62.17;6.68;100202.63;4964339;28;97039;-84
2023/06/01 07:31:46;;;;;;;4.15;3.75;;;;;;;62.54;6.28;100200.56;4929772;28;101170;-81
2023/06/01 07:34:12;;;;;;;7.00;4.38;;;;;;;62.84;6.37;100198.09;4923184;28;101696;-81
2023/06/01 07:36:38;;;;;;;5.13;4.72;;;;;;;63.01;5.99;100202.09;4954889;28;97106;-83
2023/06/01 07:39:06;;;;;;;6.57;4.50;;;;;;;63.49;6.14;100194.97;4953874;28;97100;-81
2023/06/01 07:41:35;;;;;;;5.18;4.65;;;;;;;64.51;5.34;100190.91;4953567;28;98052;-81
2023/06/01 07:44:01;;;;;;;4.72;4.43;;;;;;;64.95;5.63;100183.50;4953747;28;97413;-82
2023/06/01 07:46:26;;;;;;;6.65;5.97;;;;;;;65.43;5.74;100183.22;4934048;28;97252;-82
2023/06/01 07:48:52;;;;;;;6.65;6.15;;;;;;;65.61;4.85;100177.28;4933543;28;97570;-82
2023/06/01 07:51:17;;;;;;;7.57;6.80;;;;;;;66.03;5.18;100179.91;4945904;28;98063;-83
2023/06/01 07:53:43;;;;;;;7.60;7.20;;;;;;;66.30;5.04;100176.97;4961096;28;97456;-83
2023/06/01 07:56:08;;;;;;;8.30;7.70;;;;;;;66.30;4.93;100179.81;4988296;28;96768;-82
2023/06/01 07:58:34;;;;;;;8.87;8.37;;;;;;;66.47;5.13;100175.81;4949291;28;97597;-82
2023/06/01 08:01:00;;;;;;;7.20;6.70;;;;;;;66.53;5.06;100184.72;4953424;28;101377;-85
2023/06/01 08:03:25;;;;;;;9.93;9.13;;;;;;;66.50;5.22;100174.94;4949985;28;101004;-83
2023/06/01 08:05:57;;;;;;;9.90;8.87;;;;;;;66.64;5.35;100171.00;4953654;28;97071;-83
2023/06/01 08:08:23;;;;;;;10.73;9.95;;;;;;;66.18;4.94;100175.53;4951115;28;97594;-83
2023/06/01 08:10:49;;;;;;;10.32;9.60;;;;;;;66.08;5.57;100171.63;4952471;28;101414;-82
2023/06/01 08:13:15;;;;;;;12.00;8.88;;;;;;;66.21;5.19;100174.66;4954007;28;101916;-86
2023/06/01 08:15:42;;;;;;;10.63;9.40;;;;;;;66.10;4.99;100174.03;4946259;28;96927;-83
2023/06/01 08:18:08;;;;;;;9.20;8.10;;;;;;;65.90;4.68;100157.66;4958490;28;96808;-81
2023/06/01 08:20:35;;;;;;;9.65;7.88;;;;;;;65.43;5.62;100163.25;4950692;28;100752;-82
2023/06/01 08:23:01;;;;;;;8.55;7.95;;;;;;;64.81;5.28;100150.25;4945990;28;101293;-82
2023/06/01 08:25:27;;;;;;;7.70;7.18;;;;;;;63.97;5.32;100138.06;4936929;28;97260;-82
2023/06/01 08:27:52;;;;;;;7.80;7.03;;;;;;;63.09;5.74;100151.66;4963528;28;98318;-83
2023/06/01 08:30:18;;;;;;;6.43;5.93;;;;;;;61.44;6.67;100159.50;4964343;28;97771;-86
2023/06/01 08:32:43;;;;;;;5.93;5.43;;;;;;;57.79;8.12;100157.19;4949517;28;99157;-83
2023/06/01 08:35:09;;;;;;;5.27;4.87;;;;;;;54.14;9.10;100166.34;4983519;28;98218;-82
2023/06/01 08:37:35;;;;;;;3.73;3.43;;;;;;;51.35;10.53;100153.94;4954551;28;97296;-81
2023/06/01 08:40:00;;;;;;;3.80;2.85;;;;;;;49.06;11.18;100172.88;4930505;28;101410;-83
2023/06/01 08:42:33;;;;;;;3.28;2.88;;;;;;;47.31;12.28;100176.31;4942825;28;102208;-82
2023/06/01 08:45:04;;;;;;;7.70;2.40;;;;;;;45.69;13.33;100181.34;4928888;28;97363;-80
2023/06/01 08:47:31;;;;;;;4.88;2.50;;;;;;;44.12;13.75;100178.06;4933680;28;97573;-80
2023/06/01 08:49:58;;;;;;;5.15;2.67;;;;;;;43.19;15.09;100182.63;4941395;28;101290;-80
2023/06/01 08:52:28;;;;;;;4.40;2.30;;;;;;;41.95;15.23;100171.94;4960915;28;97813;-81
2023/06/01 08:54:54;;;;;;;4.75;2.33;;;;;;;41.16;16.11;100169.72;4938598;28;97475;-82
2023/06/01 08:57:20;;;;;;;4.22;1.80;;;;;;;40.32;16.50;100173.53;4960626;28;97575;-82
2023/06/01 08:59:46;;;;;;;3.22;1.70;;;;;;;39.59;17.09;100172.53;4951782;28;97418;-80
2023/06/01 09:02:12;;;;;;;7.05;2.28;;;;;;;38.89;17.68;100144.25;4963734;28;97908;-80
2023/06/01 09:04:42;;;;;;;5.45;1.98;;;;;;;38.20;17.51;100152.31;4953817;28;96995;-83
2023/06/01 09:07:08;;;;;;;3.85;1.92;;;;;;;37.87;18.01;100172.00;4948620;28;97294;-81
2023/06/01 09:09:33;;;;;;;6.28;1.80;;;;;;;37.39;18.67;100156.50;4956467;28;97615;-82
2023/06/01 09:12:21;;;;;;;2.60;1.65;;;;;;;36.96;18.56;100160.19;4953896;28;101663;-80
2023/06/01 09:14:47;;;;;;;2.38;1.58;;;;;;;36.55;18.72;100164.44;4956823;28;96929;-82
2023/06/01 09:17:23;;;;;;;4.82;1.83;;;;;;;36.16;18.91;100173.81;4936428;28;96970;-83
2023/06/01 09:19:52;;;;;;;2.78;1.75;;;;;;;35.70;19.01;100150.44;4941706;28;101287;-85
2023/06/01 09:22:18;;;;;;;5.72;1.58;;;;;;;35.59;19.59;100171.06;4925964;28;101245;-84
2023/06/01 09:24:58;;;;;;;3.63;1.35;;;;;;;34.95;19.47;100167.34;4956624;28;97380;-82
2023/06/01 09:27:23;;;;;;;3.78;1.50;;;;;;;34.47;19.79;100173.09;4937050;28;97097;-78
2023/06/01 09:30:01;;;;;;;2.60;1.60;;;;;;;34.37;19.99;100162.63;4984336;28;97617;-81
2023/06/01 09:32:27;;;;;;;2.97;1.42;;;;;;;34.24;20.71;100168.09;4927353;28;101511;-79
2023/06/01 09:34:54;;;;;;;1.92;1.40;;;;;;;34.05;20.42;100155.34;4970200;28;97739;-84
2023/06/01 09:37:20;;;;;;;4.05;2.00;;;;;;;33.85;20.23;100158.84;4970141;28;96946;-81
2023/06/01 09:39:45;;;;;;;4.82;1.85;;;;;;;33.68;20.68;100154.84;4949781;28;97830;-80
2023/06/01 09:42:11;;;;;;;3.33;1.75;;;;;;;33.42;21.39;100139.28;4949316;28;101299;-81
2023/06/01 09:44:41;;;;;;;3.83;1.58;;;;;;;33.42;21.31;100145.56;4954823;28;96756;-80
2023/06/01 09:47:12;;;;;;;2.78;1.35;;;;;;;33.29;21.52;100159.97;4963090;28;97184;-77
2023/06/01 09:49:42;;;;;;;4.82;1.75;;;;;;;33.12;21.42;100151.31;4952801;28;100895;-77
2023/06/01 09:52:12;;;;;;;5.47;1.83;;;;;;;32.91;24.07;100148.72;4967071;28;97843;-77
2023/06/01 09:54:43;;;;;;;1.85;1.55;;;;;;;32.70;23.40;100155.09;4964301;28;96740;-78
2023/06/01 09:57:11;;;;;;;5.72;1.77;;;;;;;32.56;22.84;100139.75;4946567;28;97054;-78
2023/06/01 09:59:43;;;;;;;3.65;1.65;;;;;;;32.63;23.56;100151.47;4935868;28;100903;-77
2023/06/01 10:02:17;;;;;;;2.58;1.42;;;;;;;32.63;23.57;100154.19;4937383;28;98795;-75
2023/06/01 10:04:49;;;;;;;4.20;1.92;;;;;;;32.56;22.98;100140.59;4950870;28;97305;-75
2023/06/01 10:07:16;;;;;;;3.65;1.50;;;;;;;32.51;23.23;100142.22;4950816;28;97542;-76
2023/06/01 10:09:43;;;;;;;2.30;1.70;;;;;;;32.42;23.25;100152.38;4951138;28;100990;-77
2023/06/01 10:12:09;;;;;;;2.28;1.13;;;;;;;32.30;23.39;100141.22;4969198;28;98481;-76
2023/06/01 10:14:37;;;;;;;4.50;1.75;;;;;;;31.90;22.97;100113.75;4947910;28;98504;-76
2023/06/01 10:17:04;;;;;;;4.90;1.60;;;;;;;31.96;23.32;100137.41;4948643;28;98033;-77
2023/06/01 10:19:30;;;;;;;1.77;1.10;;;;;;;31.85;24.77;100134.34;4947918;28;101133;-82
2023/06/01 10:21:59;;;;;;;5.60;1.67;;;;;;;31.84;24.36;100132.66;4948737;28;101668;-82
2023/06/01 10:24:26;;;;;;;1.83;1.05;;;;;;;31.78;24.31;100132.41;4951276;28;97022;-81
2023/06/01 10:27:02;;;;;;;4.13;1.73;;;;;;;31.72;25.08;100138.63;4940126;28;97484;-81
2023/06/01 10:29:30;;;;;;;3.80;1.42;;;;;;;31.63;24.81;100138.94;4945965;28;97608;-81
2023/06/01 10:31:57;;;;;;;2.75;1.48;;;;;;;31.54;25.11;100144.50;4947065;28;97311;-80
2023/06/01 10:34:39;;;;;;;4.30;1.38;;;;;;;31.63;24.92;100125.41;4946164;28;97207;-81
2023/06/01 10:37:04;;;;;;;1.70;1.40;;;;;;;31.54;25.41;100119.25;4965992;28;96832;-80
2023/06/01 10:39:31;;;;;;;3.25;1.40;;;;;;;31.61;25.43;100120.16;4962502;28;101031;-81
2023/06/01 10:42:17;;;;;;;5.53;1.88;;;;;;;31.65;25.14;100120.59;4966653;28;97587;-84
2023/06/01 10:44:42;;;;;;;4.65;1.55;;;;;;;31.53;25.15;100126.56;4936943;28;97263;-81
2023/06/01 10:47:11;;;;;;;2.13;1.33;;;;;;;31.37;26.03;100128.69;4958206;28;97077;-82
2023/06/01 10:49:49;;;;;;;2.95;1.52;;;;;;;31.03;26.27;100120.13;4962521;28;98172;-83
2023/06/01 10:52:35;;;;;;;3.30;1.35;;;;;;;31.00;25.95;100114.25;4973682;28;98975;-81
2023/06/01 10:55:10;;;;;;;7.18;1.50;;;;;;;30.92;26.67;100120.59;4957361;28;96853;-83
2023/06/01 10:57:37;;;;;;;5.47;1.60;;;;;;;30.66;26.31;100089.44;4986215;28;97236;-81
2023/06/01 11:00:23;;;;;;;3.17;1.50;;;;;;;30.42;25.48;100098.66;4946345;28;102107;-82
2023/06/01 11:03:03;;;;;;;4.25;2.00;;;;;;;30.28;26.80;100091.38;4941755;28;101166;-82
2023/06/01 11:05:51;;;;;;;4.27;1.43;;;;;;;30.33;26.66;100120.59;4947116;28;96846;-81
2023/06/01 11:08:22;;;;;;;3.38;1.40;;;;;;;30.18;26.92;100101.59;4950250;28;97430;-82
2023/06/01 11:10:58;;;;;;;3.42;1.98;;;;;;;30.12;27.03;100083.41;4956527;28;101610;-82
2023/06/01 11:13:34;;;;;;;1.80;1.20;;;;;;;30.10;27.11;100102.53;4959670;28;97962;-87
2023/06/01 11:16:22;;;;;;;1.88;1.52;;;;;;;30.08;27.12;100109.13;4934949;28;97747;-81
2023/06/01 11:18:57;;;;;;;3.35;1.63;;;;;;;29.92;27.05;100110.16;4964256;28;97463;-80
2023/06/01 11:21:33;;;;;;;2.20;1.17;;;;;;;29.87;27.43;100104.44;4966939;28;97629;-85
2023/06/01 11:23:59;;;;;;;1.83;1.30;;;;;;;29.78;27.69;100103.66;4959799;28;101299;-81
2023/06/01 11:26:35;;;;;;;4.78;1.70;;;;;;;29.77;28.12;100105.53;4943196;28;97276;-82